Time;durP1;ratioP1;P1;durP2;ratioP2;P2;SDS_P1;SDS_P2;PMS_P1;PMS_P2;Temp;Humidity;BMP_temperature;BMP_pressure;BME280_temperature;BME280_humidity;BME280_pressure;Samples;Min_cycle;Max_cycle;Signal;HPM_P1;HPM_P2
2022/05/14 00:00:24;;;;;;;6.38;2.78;;;11.30;99.90;;;;;;5116020;27;20360;-79
2022/05/14 00:02:50;;;;;;;10.07;2.45;;;11.30;99.90;;;;;;5116125;27;20055;-78
2022/05/14 00:05:20;;;;;;;5.32;2.28;;;11.30;99.90;;;;;;5116134;27;20050;-80
2022/05/14 00:07:47;;;;;;;8.35;2.22;;;11.30;99.90;;;;;;5116173;27;20058;-79
2022/05/14 00:10:15;;;;;;;6.43;2.03;;;11.30;99.90;;;;;;5115520;27;20497;-79
2022/05/14 00:15:25;;;;;;;6.15;2.35;;;11.30;99.90;;;;;;5115791;27;20124;-79
2022/05/14 00:17:51;;;;;;;8.23;2.67;;;11.40;99.90;;;;;;5116030;27;20139;-79
2022/05/14 00:20:17;;;;;;;7.50;2.08;;;11.50;99.90;;;;;;5115727;27;20508;-78
2022/05/14 00:22:43;;;;;;;4.65;2.30;;;11.50;99.90;;;;;;5115650;27;20118;-78
2022/05/14 00:25:10;;;;;;;3.60;1.75;;;11.50;99.90;;;;;;5115464;27;20123;-79
2022/05/14 00:27:41;;;;;;;6.05;2.38;;;11.60;99.90;;;;;;5114548;27;20114;-79
2022/05/14 00:30:07;;;;;;;3.67;1.70;;;11.50;99.90;;;;;;5115315;27;20039;-80
2022/05/14 00:32:33;;;;;;;6.80;2.03;;;11.50;99.90;;;;;;5115712;27;20047;-79
2022/05/14 00:34:58;;;;;;;9.27;2.28;;;11.60;99.90;;;;;;5115696;27;20485;-79
2022/05/14 00:37:24;;;;;;;6.90;2.05;;;11.60;99.90;;;;;;5115563;27;20035;-79
2022/05/14 00:39:49;;;;;;;7.25;2.53;;;11.60;99.90;;;;;;5115068;27;20039;-79
2022/05/14 00:42:15;;;;;;;5.53;2.28;;;11.60;99.90;;;;;;5115505;27;20043;-80
2022/05/14 00:44:40;;;;;;;7.88;1.83;;;11.60;99.90;;;;;;5115444;27;20112;-79
2022/05/14 00:47:12;;;;;;;6.80;2.08;;;11.70;99.90;;;;;;5115130;27;20470;-79
2022/05/14 00:49:38;;;;;;;3.85;1.83;;;11.70;99.90;;;;;;5114974;27;20508;-78
2022/05/14 00:52:04;;;;;;;9.73;2.38;;;11.70;99.90;;;;;;5115180;27;20086;-79
2022/05/14 00:54:46;;;;;;;7.95;2.47;;;11.70;99.90;;;;;;5115279;27;20070;-80
2022/05/14 00:57:16;;;;;;;4.53;1.80;;;11.70;99.90;;;;;;5115158;27;20042;-79
2022/05/14 00:59:42;;;;;;;5.93;2.20;;;11.70;99.90;;;;;;5115554;27;20439;-80
2022/05/14 01:02:08;;;;;;;6.13;2.92;;;11.70;99.90;;;;;;5115133;27;20039;-79
2022/05/14 01:04:34;;;;;;;8.80;2.20;;;11.70;99.90;;;;;;5114921;27;20031;-79
2022/05/14 01:07:06;;;;;;;6.68;2.40;;;11.70;99.90;;;;;;5097885;27;20084;-80
2022/05/14 01:09:34;;;;;;;8.15;2.03;;;11.70;99.90;;;;;;5097743;27;20031;-79
2022/05/14 01:11:59;;;;;;;9.73;2.58;;;11.60;99.90;;;;;;5115001;27;20050;-79
2022/05/14 01:14:25;;;;;;;7.25;2.60;;;11.60;99.90;;;;;;5114952;27;20043;-79
2022/05/14 01:16:53;;;;;;;7.65;1.98;;;11.60;99.90;;;;;;5114870;27;20122;-79
2022/05/14 01:19:19;;;;;;;10.00;2.60;;;11.40;99.90;;;;;;5114823;27;20039;-79
2022/05/14 01:22:16;;;;;;;8.90;2.83;;;11.40;99.90;;;;;;5115067;27;20035;-79
2022/05/14 01:27:49;;;;;;;9.82;2.25;;;11.30;99.90;;;;;;5114715;27;20050;-79
2022/05/14 01:30:16;;;;;;;10.95;2.97;;;11.30;99.90;;;;;;5114560;27;20043;-78
2022/05/14 01:32:45;;;;;;;9.40;2.45;;;11.30;99.90;;;;;;5114715;27;20050;-78
2022/05/14 01:35:15;;;;;;;11.52;2.53;;;11.30;99.90;;;;;;5114909;27;20100;-78
2022/05/14 01:37:40;;;;;;;8.02;2.90;;;11.30;99.90;;;;;;5114106;27;20043;-78
2022/05/14 01:40:06;;;;;;;7.25;3.20;;;11.30;99.90;;;;;;5114040;27;20118;-78
2022/05/14 01:42:32;;;;;;;8.13;2.88;;;11.30;99.90;;;;;;5114429;27;20039;-79
2022/05/14 01:44:58;;;;;;;6.03;2.35;;;11.30;99.90;;;;;;5097481;27;20084;-79
2022/05/14 01:47:23;;;;;;;6.90;2.63;;;11.30;99.90;;;;;;5097718;27;20088;-79
2022/05/14 01:49:49;;;;;;;7.45;2.83;;;11.30;99.90;;;;;;5114077;27;20031;-81
2022/05/14 01:52:14;;;;;;;11.93;2.67;;;11.30;99.90;;;;;;5114531;28;20124;-78
2022/05/14 01:54:40;;;;;;;11.18;3.05;;;11.30;99.90;;;;;;5132833;27;20039;-78
2022/05/14 01:57:06;;;;;;;11.48;2.42;;;11.30;99.90;;;;;;5114353;27;20374;-78
2022/05/14 01:59:31;;;;;;;8.60;3.33;;;11.30;99.90;;;;;;5113798;27;20490;-79
2022/05/14 02:01:57;;;;;;;8.90;3.25;;;11.20;99.90;;;;;;5113776;28;20092;-79
2022/05/14 02:04:22;;;;;;;7.05;3.55;;;11.20;99.90;;;;;;5114118;28;20118;-78
2022/05/14 02:06:48;;;;;;;7.95;3.88;;;11.10;99.90;;;;;;5114168;28;20078;-78
2022/05/14 02:09:15;;;;;;;12.85;3.45;;;11.10;99.90;;;;;;5097053;28;20121;-78
2022/05/14 02:11:42;;;;;;;9.80;2.90;;;11.10;99.90;;;;;;5113594;28;20546;-78
2022/05/14 02:14:08;;;;;;;16.23;3.30;;;11.10;99.90;;;;;;5097129;28;20122;-78
2022/05/14 02:16:34;;;;;;;9.00;3.17;;;11.00;99.90;;;;;;5114084;28;20036;-78
2022/05/14 02:19:00;;;;;;;9.45;2.92;;;11.10;99.90;;;;;;5132403;28;20054;-79
2022/05/14 02:21:28;;;;;;;9.23;2.95;;;11.10;99.90;;;;;;5131895;28;20078;-80
2022/05/14 02:23:54;;;;;;;10.93;3.35;;;11.10;99.90;;;;;;5113947;28;20040;-78
2022/05/14 02:26:20;;;;;;;8.35;3.08;;;11.10;99.90;;;;;;5097127;28;20124;-78
2022/05/14 02:28:46;;;;;;;12.25;3.72;;;11.10;99.90;;;;;;5097229;28;20100;-78
2022/05/14 02:31:11;;;;;;;9.93;3.10;;;11.00;99.90;;;;;;5113728;28;20473;-78
2022/05/14 02:33:38;;;;;;;7.50;2.63;;;11.00;99.90;;;;;;5114006;28;20057;-78
2022/05/14 02:36:04;;;;;;;8.45;3.35;;;11.00;99.90;;;;;;5114138;28;20093;-79
2022/05/14 02:38:31;;;;;;;16.20;3.95;;;11.00;99.90;;;;;;5114239;28;20386;-78
2022/05/14 02:40:57;;;;;;;13.95;3.60;;;11.00;99.90;;;;;;5113451;28;20047;-78
2022/05/14 02:43:23;;;;;;;10.52;3.55;;;10.90;99.90;;;;;;5113685;28;20539;-79
2022/05/14 02:45:49;;;;;;;9.27;3.20;;;11.00;99.90;;;;;;5114211;28;20071;-78
2022/05/14 02:48:15;;;;;;;11.95;3.35;;;11.00;99.90;;;;;;5113770;28;20560;-79
2022/05/14 02:50:41;;;;;;;9.50;3.67;;;11.00;99.90;;;;;;5115201;27;20036;-80
2022/05/14 02:53:07;;;;;;;7.70;3.63;;;11.00;99.90;;;;;;5117704;27;20035;-80
2022/05/14 02:55:33;;;;;;;10.30;4.00;;;11.00;99.90;;;;;;5100251;27;20039;-79
2022/05/14 02:57:58;;;;;;;16.25;4.10;;;11.00;99.90;;;;;;5117669;27;20068;-78
2022/05/14 03:00:24;;;;;;;13.00;3.90;;;11.00;99.90;;;;;;5117204;27;20047;-78
2022/05/14 03:02:50;;;;;;;11.25;3.75;;;11.00;99.90;;;;;;5117145;27;20042;-78
2022/05/14 03:05:19;;;;;;;12.75;4.85;;;11.00;99.90;;;;;;5117201;27;20077;-78
2022/05/14 03:07:45;;;;;;;17.23;4.32;;;11.00;99.90;;;;;;5117343;27;20462;-78
2022/05/14 03:10:12;;;;;;;8.18;3.75;;;11.00;99.90;;;;;;5116802;27;20043;-79
2022/05/14 03:12:37;;;;;;;12.02;4.35;;;11.00;99.90;;;;;;5116980;27;20481;-79
2022/05/14 03:15:05;;;;;;;10.93;4.25;;;10.90;99.90;;;;;;5135588;27;20043;-78
2022/05/14 03:17:34;;;;;;;11.90;3.38;;;10.80;99.90;;;;;;5116997;27;20047;-78
2022/05/14 03:20:07;;;;;;;8.82;3.63;;;10.80;99.90;;;;;;5116652;27;20045;-78
2022/05/14 03:22:35;;;;;;;13.32;3.90;;;10.80;99.90;;;;;;5116927;27;20043;-78
2022/05/14 03:25:02;;;;;;;14.20;4.18;;;10.70;99.90;;;;;;5117137;27;20053;-78
2022/05/14 03:27:27;;;;;;;11.40;3.85;;;10.70;99.90;;;;;;5117071;27;20058;-78
2022/05/14 03:29:54;;;;;;;13.57;5.13;;;10.60;99.90;;;;;;5116828;27;20481;-78
2022/05/14 03:32:20;;;;;;;18.05;4.85;;;10.50;99.90;;;;;;5116761;27;20852;-79
2022/05/14 03:34:46;;;;;;;12.93;3.95;;;10.50;99.90;;;;;;5116820;27;20118;-78
2022/05/14 03:37:13;;;;;;;15.65;4.72;;;10.50;99.90;;;;;;5117071;27;20597;-78
2022/05/14 03:39:38;;;;;;;13.70;3.88;;;10.50;99.90;;;;;;5116726;27;20043;-78
2022/05/14 03:42:04;;;;;;;7.93;3.67;;;10.40;99.90;;;;;;5116400;27;20096;-79
2022/05/14 03:44:30;;;;;;;17.00;4.45;;;10.40;99.90;;;;;;5116842;27;20031;-78
2022/05/14 03:46:55;;;;;;;13.00;3.90;;;10.30;99.90;;;;;;5116515;27;20089;-78
2022/05/14 03:49:21;;;;;;;15.50;3.95;;;10.30;99.90;;;;;;5116659;27;20514;-78
2022/05/14 03:51:46;;;;;;;14.38;4.28;;;10.30;99.90;;;;;;5116610;27;20039;-78
2022/05/14 03:54:12;;;;;;;15.48;4.55;;;10.30;99.90;;;;;;5116244;27;20130;-78
2022/05/14 03:56:39;;;;;;;14.07;5.20;;;10.30;99.90;;;;;;5116069;27;20398;-78
2022/05/14 03:59:08;;;;;;;11.68;4.57;;;10.30;99.90;;;;;;5099333;27;20047;-78
2022/05/14 04:01:35;;;;;;;10.48;4.90;;;10.30;99.90;;;;;;5115528;27;20049;-78
2022/05/14 04:04:01;;;;;;;9.40;4.10;;;10.30;99.90;;;;;;5116463;27;20066;-78
2022/05/14 04:06:27;;;;;;;13.57;4.53;;;10.30;99.90;;;;;;5116111;27;20059;-78
2022/05/14 04:08:52;;;;;;;11.52;3.90;;;10.30;99.90;;;;;;5134603;27;20118;-78
2022/05/14 04:11:18;;;;;;;20.00;4.97;;;10.30;99.90;;;;;;5115675;27;20043;-78
2022/05/14 04:13:44;;;;;;;15.50;4.25;;;10.20;99.90;;;;;;5115999;27;20039;-78
2022/05/14 04:16:09;;;;;;;9.30;4.05;;;10.20;99.90;;;;;;5115894;27;20039;-79
2022/05/14 04:18:36;;;;;;;13.10;4.43;;;10.20;99.90;;;;;;5116178;27;20074;-79
2022/05/14 04:21:02;;;;;;;13.38;5.63;;;10.30;99.90;;;;;;5115501;27;20079;-78
2022/05/14 04:23:29;;;;;;;9.23;3.72;;;10.30;99.90;;;;;;5115730;27;20084;-78
2022/05/14 04:25:56;;;;;;;10.68;4.70;;;10.30;99.90;;;;;;5116328;27;20043;-78
2022/05/14 04:28:22;;;;;;;13.10;4.00;;;10.30;99.90;;;;;;5117321;27;20091;-78
2022/05/14 04:30:48;;;;;;;11.73;4.40;;;10.30;99.90;;;;;;5138607;27;20099;-78
2022/05/14 04:33:16;;;;;;;16.15;4.30;;;10.30;99.90;;;;;;5135719;27;20164;-79
2022/05/14 04:35:41;;;;;;;17.48;5.95;;;10.30;99.90;;;;;;5119123;27;20085;-77
2022/05/14 04:38:07;;;;;;;11.50;5.72;;;10.40;99.90;;;;;;5115631;27;20474;-79
2022/05/14 04:40:33;;;;;;;15.90;5.03;;;10.40;99.90;;;;;;5098471;27;20047;-78
2022/05/14 04:42:59;;;;;;;17.20;5.18;;;10.50;99.90;;;;;;5115479;27;20405;-78
2022/05/14 04:45:24;;;;;;;12.90;4.55;;;10.50;99.90;;;;;;5115347;27;20035;-78
2022/05/14 04:47:50;;;;;;;15.30;4.45;;;10.60;99.90;;;;;;5115477;27;20448;-79
2022/05/14 04:50:16;;;;;;;16.05;4.60;;;10.70;99.90;;;;;;5115290;27;20528;-78
2022/05/14 04:52:42;;;;;;;10.77;4.30;;;10.80;99.90;;;;;;5115159;27;20079;-78
2022/05/14 04:55:08;;;;;;;13.90;4.68;;;11.00;99.90;;;;;;5115004;27;20047;-78
2022/05/14 04:57:35;;;;;;;14.35;4.60;;;11.10;99.90;;;;;;5115366;27;20070;-78
2022/05/14 05:00:01;;;;;;;12.65;5.80;;;11.20;99.90;;;;;;5114747;27;20100;-80
2022/05/14 05:05:12;;;;;;;10.50;4.35;;;11.70;99.90;;;;;;5114932;27;20046;-78
2022/05/14 05:07:37;;;;;;;16.77;5.35;;;12.00;99.90;;;;;;5115161;27;20087;-78
2022/05/14 05:10:03;;;;;;;13.68;4.40;;;12.40;99.90;;;;;;5114912;27;20047;-78
2022/05/14 05:12:29;;;;;;;11.85;4.15;;;12.70;99.90;;;;;;5114884;27;20088;-78
2022/05/14 05:14:55;;;;;;;17.38;5.05;;;13.00;99.90;;;;;;5098164;27;20035;-80
2022/05/14 05:17:20;;;;;;;14.45;4.72;;;13.30;99.90;;;;;;5114859;27;20126;-79
2022/05/14 05:19:46;;;;;;;14.65;4.65;;;13.60;99.90;;;;;;5114969;27;20099;-79
2022/05/14 05:22:12;;;;;;;14.98;4.82;;;13.90;99.90;;;;;;5097775;27;20092;-79
2022/05/14 05:24:37;;;;;;;14.73;4.53;;;14.10;99.90;;;;;;5115115;27;20439;-79
2022/05/14 05:27:04;;;;;;;14.48;5.78;;;14.40;99.90;;;;;;5097854;27;20489;-79
2022/05/14 05:29:30;;;;;;;14.82;5.78;;;14.70;99.90;;;;;;5114660;27;20046;-80
2022/05/14 05:31:55;;;;;;;16.48;4.97;;;14.90;99.90;;;;;;5098061;27;20075;-79
2022/05/14 05:34:21;;;;;;;12.10;5.00;;;15.10;99.90;;;;;;5114576;27;20081;-79
2022/05/14 05:36:46;;;;;;;18.08;5.15;;;15.40;99.90;;;;;;5115339;27;20399;-79
2022/05/14 05:39:12;;;;;;;15.35;5.00;;;15.60;99.90;;;;;;5098071;27;20511;-79
2022/05/14 05:41:37;;;;;;;23.45;5.50;;;15.80;99.90;;;;;;5114477;27;20447;-79
2022/05/14 05:44:03;;;;;;;14.38;4.72;;;16.00;99.90;;;;;;5115094;27;20047;-78
2022/05/14 05:46:31;;;;;;;16.77;4.50;;;16.20;99.90;;;;;;5114555;27;20114;-78
2022/05/14 05:48:57;;;;;;;12.30;5.20;;;16.40;99.90;;;;;;5097813;27;20035;-79
2022/05/14 05:51:22;;;;;;;14.52;5.65;;;16.60;99.90;;;;;;5114402;27;20125;-80
2022/05/14 05:56:47;;;;;;;18.75;5.60;;;16.70;99.90;;;;;;5115970;27;20502;-80
2022/05/14 05:59:15;;;;;;;17.70;4.95;;;16.80;99.90;;;;;;5114659;27;20043;-79
2022/05/14 06:01:41;;;;;;;15.80;5.50;;;17.00;99.90;;;;;;5132444;27;20615;-80
2022/05/14 06:04:06;;;;;;;17.67;5.05;;;17.20;99.90;;;;;;5114182;28;20122;-79
2022/05/14 06:06:32;;;;;;;13.85;4.93;;;17.50;99.90;;;;;;5115268;28;20047;-81
2022/05/14 06:08:59;;;;;;;14.02;5.50;;;17.50;99.90;;;;;;5116572;28;20050;-81
2022/05/14 06:11:25;;;;;;;15.15;5.13;;;17.50;99.90;;;;;;5098995;28;20039;-81
2022/05/14 06:13:51;;;;;;;15.23;5.22;;;17.50;99.90;;;;;;5099305;28;20050;-81
2022/05/14 06:16:17;;;;;;;12.50;5.35;;;17.60;99.90;;;;;;5116029;28;20054;-81
2022/05/14 06:18:43;;;;;;;16.13;5.25;;;17.40;99.90;;;;;;5116590;28;20046;-81
2022/05/14 06:21:09;;;;;;;16.25;5.55;;;16.90;99.90;;;;;;5098703;28;20047;-80
2022/05/14 06:23:35;;;;;;;17.13;5.43;;;16.40;99.90;;;;;;5098488;28;20392;-81
2022/05/14 06:26:01;;;;;;;20.35;5.97;;;16.00;99.90;;;;;;5120362;27;20099;-81
2022/05/14 06:28:26;;;;;;;13.00;5.47;;;15.80;99.90;;;;;;5121564;27;20103;-80
2022/05/14 06:30:52;;;;;;;13.10;4.93;;;16.00;99.90;;;;;;5102985;27;20083;-81
2022/05/14 06:33:19;;;;;;;17.35;5.80;;;16.40;99.90;;;;;;5119139;27;20424;-81
2022/05/14 06:35:45;;;;;;;19.13;5.20;;;17.00;99.90;;;;;;5101860;27;20482;-81
2022/05/14 06:38:12;;;;;;;17.63;5.35;;;17.50;99.90;;;;;;5118345;27;20708;-80
2022/05/14 06:40:39;;;;;;;25.02;6.00;;;18.00;99.90;;;;;;5120580;27;20524;-81
2022/05/14 06:43:05;;;;;;;20.10;6.20;;;18.30;99.90;;;;;;5120480;27;20490;-81
2022/05/14 06:45:30;;;;;;;17.65;5.10;;;18.40;99.90;;;;;;5118480;27;20511;-81
2022/05/14 06:47:57;;;;;;;20.05;5.60;;;18.60;99.90;;;;;;5118817;27;20051;-80
2022/05/14 06:50:24;;;;;;;21.73;5.57;;;18.70;99.90;;;;;;5119991;27;20122;-81
2022/05/14 06:52:52;;;;;;;19.75;5.85;;;18.80;99.90;;;;;;5119941;27;20047;-81
2022/05/14 06:55:21;;;;;;;17.45;5.35;;;19.00;99.90;;;;;;5120707;27;20043;-81
2022/05/14 06:57:49;;;;;;;19.67;5.43;;;19.10;99.90;;;;;;5119837;27;20485;-81
2022/05/14 07:00:18;;;;;;;19.45;6.75;;;19.00;99.90;;;;;;5120261;27;20047;-81
2022/05/14 07:02:46;;;;;;;16.65;5.80;;;18.90;99.90;;;;;;5105106;27;20122;-81
2022/05/14 07:07:57;;;;;;;17.40;5.72;;;19.40;99.90;;;;;;5137904;27;20095;-80
2022/05/14 07:10:23;;;;;;;12.90;6.13;;;19.80;99.90;;;;;;5119432;27;20122;-81
2022/05/14 07:12:49;;;;;;;20.35;5.90;;;20.00;99.90;;;;;;5106256;27;20058;-81
2022/05/14 07:15:15;;;;;;;18.90;5.35;;;20.20;99.90;;;;;;5107387;27;20441;-81
2022/05/14 07:17:41;;;;;;;21.30;5.22;;;20.30;99.90;;;;;;5121321;27;20049;-78
2022/05/14 07:20:07;;;;;;;19.17;6.43;;;20.40;99.90;;;;;;5117994;27;20233;-78
2022/05/14 07:22:33;;;;;;;18.42;5.13;;;20.70;99.90;;;;;;5117689;27;20417;-77
2022/05/14 07:24:59;;;;;;;21.33;6.15;;;21.10;99.90;;;;;;5117615;27;20043;-76
2022/05/14 07:27:25;;;;;;;17.77;6.30;;;21.40;99.90;;;;;;5118270;27;20071;-78
2022/05/14 07:29:51;;;;;;;15.32;5.13;;;21.30;99.90;;;;;;5118941;27;20669;-78
2022/05/14 07:32:19;;;;;;;29.02;6.90;;;21.40;99.90;;;;;;5118207;27;20126;-78
2022/05/14 07:34:45;;;;;;;79.20;17.08;;;21.50;99.90;;;;;;5118423;27;20512;-78
2022/05/14 07:37:23;;;;;;;49.00;13.27;;;21.60;99.90;;;;;;5135792;27;20478;-76
2022/05/14 07:39:55;;;;;;;21.23;6.15;;;21.80;99.90;;;;;;5117546;27;20168;-78
2022/05/14 07:42:35;;;;;;;20.77;5.60;;;21.80;99.90;;;;;;5118262;27;20051;-76
2022/05/14 07:45:04;;;;;;;20.90;5.25;;;21.80;99.90;;;;;;5117817;27;20039;-77
2022/05/14 07:47:30;;;;;;;18.90;4.63;;;21.80;99.90;;;;;;5117742;27;20528;-78
2022/05/14 07:49:57;;;;;;;15.20;4.70;;;21.80;99.90;;;;;;5136081;27;20035;-78
2022/05/14 07:52:24;;;;;;;29.55;5.72;;;21.70;99.90;;;;;;5101202;27;20050;-78
2022/05/14 07:54:49;;;;;;;43.63;8.57;;;21.80;99.90;;;;;;5117468;27;20058;-76
2022/05/14 07:57:18;;;;;;;27.48;6.18;;;22.00;99.90;;;;;;5117809;27;20046;-77
2022/05/14 07:59:44;;;;;;;16.50;3.95;;;22.20;99.90;;;;;;5136586;27;20035;-77
2022/05/14 08:02:22;;;;;;;17.63;4.43;;;22.50;99.90;;;;;;5117882;27;20084;-77
2022/05/14 08:04:48;;;;;;;18.58;5.32;;;22.60;99.90;;;;;;5117532;27;20043;-76
2022/05/14 08:07:14;;;;;;;18.67;4.05;;;22.80;99.90;;;;;;5136050;27;20085;-78
2022/05/14 08:09:40;;;;;;;19.92;4.72;;;23.00;99.80;;;;;;5124459;27;20031;-77
2022/05/14 08:12:06;;;;;;;15.60;4.22;;;22.90;98.70;;;;;;5131949;27;20096;-78
2022/05/14 08:14:31;;;;;;;16.73;4.47;;;22.80;99.10;;;;;;5132633;27;20539;-78
2022/05/14 08:16:58;;;;;;;19.00;5.30;;;22.80;99.60;;;;;;5119748;27;20117;-78
2022/05/14 08:19:23;;;;;;;16.55;4.20;;;22.80;99.60;;;;;;5116008;27;20125;-78
2022/05/14 08:24:34;;;;;;;18.02;4.75;;;23.10;99.90;;;;;;5115620;27;20107;-78
2022/05/14 08:27:06;;;;;;;20.45;4.32;;;23.30;98.90;;;;;;5116094;27;20061;-78
2022/05/14 08:29:33;;;;;;;14.07;3.78;;;23.00;97.50;;;;;;5115662;27;20039;-78
2022/05/14 08:31:58;;;;;;;10.73;2.90;;;22.50;97.30;;;;;;5134217;27;20493;-78
2022/05/14 08:34:24;;;;;;;18.88;4.97;;;22.30;96.70;;;;;;5115892;27;20054;-79
2022/05/14 08:36:50;;;;;;;14.85;3.58;;;22.40;96.40;;;;;;5115629;27;20508;-79
2022/05/14 08:39:16;;;;;;;14.00;3.38;;;22.60;96.50;;;;;;5115676;27;20529;-78
2022/05/14 08:41:47;;;;;;;19.00;3.33;;;22.80;96.00;;;;;;5115050;27;20126;-78
2022/05/14 08:44:21;;;;;;;17.95;3.97;;;22.90;93.70;;;;;;5115334;27;20050;-78
2022/05/14 08:46:53;;;;;;;47.00;9.63;;;22.70;91.20;;;;;;5115201;27;20455;-78
2022/05/14 08:49:50;;;;;;;18.58;4.25;;;22.90;92.60;;;;;;5132831;27;20381;-78
2022/05/14 08:52:20;;;;;;;17.75;3.67;;;22.90;91.10;;;;;;5111152;27;20062;-78
2022/05/14 08:54:46;;;;;;;25.33;4.65;;;22.90;92.10;;;;;;5115395;27;20047;-77
2022/05/14 08:57:29;;;;;;;25.85;4.60;;;22.50;92.80;;;;;;5115133;27;20091;-77
2022/05/14 09:00:00;;;;;;;14.73;3.78;;;22.40;92.40;;;;;;5114383;27;20055;-77
2022/05/14 09:02:48;;;;;;;19.27;4.03;;;22.50;95.10;;;;;;5115237;27;20111;-77
2022/05/14 09:05:14;;;;;;;16.45;4.22;;;22.80;95.00;;;;;;5097536;27;20409;-77
2022/05/14 09:07:40;;;;;;;16.17;4.13;;;22.70;94.30;;;;;;5115087;27;20046;-78
2022/05/14 09:10:17;;;;;;;14.52;4.13;;;22.30;93.30;;;;;;5114722;27;20114;-78
2022/05/14 09:12:52;;;;;;;17.35;4.13;;;22.10;92.40;;;;;;5115341;27;20038;-79
2022/05/14 09:15:18;;;;;;;16.38;3.85;;;21.90;93.00;;;;;;5115346;27;20386;-79
2022/05/14 09:17:43;;;;;;;19.90;4.28;;;21.80;94.20;;;;;;5115013;27;20163;-79
2022/05/14 09:20:09;;;;;;;19.55;4.68;;;21.60;94.30;;;;;;5114693;27;20046;-79
2022/05/14 09:22:47;;;;;;;16.42;4.25;;;21.40;95.50;;;;;;5115291;27;20065;-78
2022/05/14 09:25:25;;;;;;;26.95;4.55;;;21.40;95.80;;;;;;5115661;27;20404;-78
2022/05/14 09:28:05;;;;;;;17.80;4.15;;;21.40;96.00;;;;;;5114771;27;20047;-78
2022/05/14 09:30:51;;;;;;;18.35;4.63;;;21.20;96.70;;;;;;5114574;27;20078;-78
2022/05/14 09:33:27;;;;;;;17.17;4.53;;;21.50;97.60;;;;;;5115019;27;20489;-79
2022/05/14 09:35:58;;;;;;;13.38;3.80;;;22.00;96.10;;;;;;5114479;27;20054;-79
2022/05/14 09:38:25;;;;;;;16.52;4.45;;;22.40;95.50;;;;;;5115702;27;20126;-78
2022/05/14 09:40:54;;;;;;;17.77;4.38;;;22.60;95.50;;;;;;5115028;27;20043;-78
2022/05/14 09:43:19;;;;;;;13.90;3.53;;;22.90;94.50;;;;;;5114944;27;20085;-79
2022/05/14 09:46:02;;;;;;;19.00;4.38;;;23.00;94.40;;;;;;5115374;27;20039;-79
2022/05/14 09:48:43;;;;;;;16.38;3.75;;;22.90;92.60;;;;;;5116261;27;20039;-79
2022/05/14 09:51:09;;;;;;;16.60;4.20;;;22.70;95.20;;;;;;5114852;27;20046;-78
2022/05/14 09:53:39;;;;;;;16.73;3.75;;;22.40;95.20;;;;;;5098514;27;20408;-78
2022/05/14 09:56:30;;;;;;;23.48;4.20;;;22.20;95.30;;;;;;5115117;28;20054;-79
2022/05/14 09:59:17;;;;;;;23.10;4.47;;;22.40;95.30;;;;;;5115532;28;20035;-79
2022/05/14 10:02:09;;;;;;;14.15;3.60;;;22.20;94.30;;;;;;5114847;27;20403;-80
2022/05/14 10:04:41;;;;;;;;;;;22.20;95.60;;;;;;5116496;28;20038;-80
2022/05/14 10:07:12;;;;;;;16.50;3.92;;;22.50;96.70;;;;;;5114456;28;19984;-80
2022/05/14 10:09:48;;;;;;;11.93;2.80;;;22.80;90.80;;;;;;5114443;28;20126;-79
2022/05/14 10:12:50;;;;;;;12.50;3.00;;;22.90;89.40;;;;;;5133356;28;20047;-78
2022/05/14 10:15:43;;;;;;;15.02;3.50;;;22.50;83.90;;;;;;5133685;28;20070;-78
2022/05/14 10:18:17;;;;;;;11.45;3.20;;;22.00;92.00;;;;;;5098028;28;20050;-79
2022/05/14 10:20:57;;;;;;;15.15;3.78;;;21.50;92.70;;;;;;5097836;28;20043;-80
2022/05/14 10:26:50;;;;;;;16.85;3.63;;;21.50;92.40;;;;;;5115952;28;20039;-81
2022/05/14 10:29:19;;;;;;;18.90;3.65;;;21.60;91.80;;;;;;5117099;28;20039;-79
2022/05/14 10:32:13;;;;;;;15.57;3.72;;;21.90;92.30;;;;;;5097943;28;20039;-80
2022/05/14 10:35:09;;;;;;;12.23;3.50;;;22.40;90.60;;;;;;5098942;28;20347;-80
2022/05/14 10:37:53;;;;;;;13.38;3.40;;;22.60;82.10;;;;;;5098657;28;20042;-80
2022/05/14 10:40:24;;;;;;;15.60;3.55;;;22.40;84.30;;;;;;5133887;28;20050;-81
2022/05/14 10:42:53;;;;;;;15.43;3.77;;;22.10;87.00;;;;;;5098653;28;20043;-79
2022/05/14 10:45:24;;;;;;;14.20;4.10;;;21.70;89.70;;;;;;5099700;28;20277;-78
2022/05/14 10:48:08;;;;;;;;;;;21.50;90.90;;;;;;5118257;28;20535;-80
2022/05/14 10:50:34;;;;;;;18.88;3.38;;;21.80;98.00;;;;;;5099199;28;19922;-80
2022/05/14 10:53:06;;;;;;;11.52;3.42;;;22.20;90.90;;;;;;5099640;28;20031;-80
2022/05/14 10:56:04;;;;;;;14.85;3.78;;;22.40;87.20;;;;;;5136551;28;20042;-80
2022/05/14 10:59:00;;;;;;;14.98;3.65;;;22.50;84.90;;;;;;5094949;28;20129;-80
2022/05/14 11:01:43;;;;;;;16.08;3.20;;;22.80;81.90;;;;;;5101618;28;20393;-79
2022/05/14 11:04:42;;;;;;;19.40;3.60;;;23.00;72.40;;;;;;5117969;28;20046;-80
2022/05/14 11:07:33;;;;;;;12.30;3.47;;;23.30;68.30;;;;;;5117748;28;20050;-79
2022/05/14 11:10:20;;;;;;;9.17;3.10;;;23.30;73.40;;;;;;5118512;28;20066;-79
2022/05/14 11:12:48;;;;;;;15.65;3.25;;;23.40;75.70;;;;;;5120518;27;20133;-79
2022/05/14 11:15:24;;;;;;;13.60;2.67;;;23.70;74.60;;;;;;5141212;27;20047;-79
2022/05/14 11:18:03;;;;;;;20.85;3.83;;;23.80;73.90;;;;;;5122813;27;20039;-80
2022/05/14 11:20:28;;;;;;;15.85;3.30;;;24.00;58.40;;;;;;5122411;27;20061;-80
2022/05/14 11:23:06;;;;;;;15.73;3.20;;;24.00;69.30;;;;;;5105561;27;20374;-80
2022/05/14 11:25:31;;;;;;;15.02;3.42;;;24.10;63.20;;;;;;5122713;27;20039;-80
2022/05/14 11:28:08;;;;;;;17.85;3.47;;;24.10;66.20;;;;;;5123123;27;20115;-80
2022/05/14 11:30:49;;;;;;;11.25;3.15;;;24.20;67.90;;;;;;5140409;27;20043;-80
2022/05/14 11:33:23;;;;;;;15.43;3.50;;;23.90;63.50;;;;;;5105151;27;20050;-80
2022/05/14 11:35:51;;;;;;;17.65;3.78;;;23.80;64.30;;;;;;5122423;27;20524;-80
2022/05/14 11:38:29;;;;;;;17.33;3.97;;;24.00;66.40;;;;;;5122956;27;20047;-80
2022/05/14 11:41:00;;;;;;;15.20;3.15;;;24.20;60.70;;;;;;5129541;27;20050;-78
2022/05/14 11:43:29;;;;;;;10.88;2.78;;;24.30;60.90;;;;;;5128110;27;20047;-79
2022/05/14 11:46:25;;;;;;;15.85;3.58;;;24.20;59.30;;;;;;5127683;27;20045;-80
2022/05/14 11:49:00;;;;;;;13.88;3.70;;;23.80;55.60;;;;;;5121428;27;20047;-80
2022/05/14 11:51:53;;;;;;;10.18;3.50;;;23.30;59.60;;;;;;5121898;27;20126;-79
2022/05/14 11:54:28;;;;;;;14.85;4.07;;;23.00;67.00;;;;;;5130009;27;20098;-78
2022/05/14 11:57:14;;;;;;;19.02;3.92;;;22.80;70.80;;;;;;5130852;27;20039;-79
2022/05/14 11:59:59;;;;;;;15.13;3.28;;;22.90;71.60;;;;;;5131823;27;20043;-79
2022/05/14 12:02:44;;;;;;;15.63;3.85;;;23.10;67.30;;;;;;5120926;27;20224;-79
2022/05/14 12:05:28;;;;;;;13.27;3.38;;;23.00;66.40;;;;;;5116969;27;20041;-79
2022/05/14 12:08:18;;;;;;;15.82;3.28;;;22.70;62.60;;;;;;5100001;27;20039;-79
2022/05/14 12:11:22;;;;;;;12.35;2.95;;;22.40;65.90;;;;;;5116781;27;20043;-80
2022/05/14 12:14:15;;;;;;;16.88;3.45;;;22.70;65.10;;;;;;5061284;27;20046;-78
2022/05/14 12:16:53;;;;;;;14.68;3.65;;;22.90;67.80;;;;;;5134362;27;20435;-77
2022/05/14 12:19:24;;;;;;;15.77;3.10;;;23.20;61.90;;;;;;5100246;27;20490;-77
2022/05/14 12:22:20;;;;;;;11.43;3.53;;;23.10;61.20;;;;;;5134295;27;20118;-78
2022/05/14 12:24:59;;;;;;;17.08;4.47;;;23.00;61.80;;;;;;5106319;27;20051;-78
2022/05/14 12:27:26;;;;;;;12.27;3.42;;;22.80;61.30;;;;;;5118770;27;20465;-78
2022/05/14 12:29:58;;;;;;;17.05;3.70;;;22.60;66.30;;;;;;5116974;27;20035;-78
2022/05/14 12:35:25;;;;;;;12.18;3.38;;;22.50;68.20;;;;;;5115182;27;20047;-77
2022/05/14 12:37:56;;;;;;;17.13;3.60;;;22.50;67.30;;;;;;5098234;27;20047;-77
2022/05/14 12:40:31;;;;;;;17.98;3.15;;;22.40;67.50;;;;;;5098439;27;20054;-77
2022/05/14 12:42:58;;;;;;;12.23;3.40;;;22.30;70.50;;;;;;5115465;27;20126;-78
2022/05/14 12:45:38;;;;;;;11.40;3.10;;;22.20;73.40;;;;;;5115172;27;20047;-79
2022/05/14 12:48:04;;;;;;;17.08;3.22;;;22.10;73.30;;;;;;5103859;27;20038;-83
2022/05/14 12:50:32;;;;;;;11.30;3.13;;;21.90;73.40;;;;;;5120002;27;20039;-82
2022/05/14 12:53:00;;;;;;;15.05;3.65;;;21.70;73.30;;;;;;5113764;27;20064;-83
2022/05/14 12:55:28;;;;;;;13.82;3.08;;;21.40;75.60;;;;;;5137716;27;20613;-82
2022/05/14 12:57:56;;;;;;;13.95;4.18;;;21.50;79.30;;;;;;5121286;27;20050;-83
2022/05/14 13:00:22;;;;;;;12.98;3.05;;;21.80;78.30;;;;;;5102041;27;20051;-81
2022/05/14 13:02:55;;;;;;;13.73;3.63;;;21.90;75.50;;;;;;5098884;27;20053;-80
2022/05/14 13:05:24;;;;;;;12.23;3.78;;;21.80;73.70;;;;;;5099257;27;20035;-81
2022/05/14 13:08:10;;;;;;;15.13;3.00;;;21.70;74.90;;;;;;5115603;27;20074;-81
2022/05/14 13:10:38;;;;;;;15.25;3.00;;;21.80;75.80;;;;;;5115349;27;20039;-81
2022/05/14 13:13:08;;;;;;;14.85;3.10;;;21.70;74.90;;;;;;5116494;27;20049;-81
2022/05/14 13:15:38;;;;;;;13.38;3.63;;;21.70;73.70;;;;;;5133409;27;20041;-81